Time;durP1;ratioP1;P1;durP2;ratioP2;P2;SDS_P1;SDS_P2;PMS_P1;PMS_P2;Temp;Humidity;BMP_temperature;BMP_pressure;BME280_temperature;BME280_humidity;BME280_pressure;Samples;Min_cycle;Max_cycle;Signal;HPM_P1;HPM_P2
2022/07/26 00:00:00;;;;;;;11.87;4.30;;;20.10;99.90;;;;;;5045969;28;20443;-76
2022/07/26 00:02:27;;;;;;;10.50;3.33;;;20.10;99.90;;;;;;5049903;28;20536;-76
2022/07/26 00:04:54;;;;;;;5.60;2.37;;;20.10;99.90;;;;;;5049716;28;20495;-76
2022/07/26 00:07:20;;;;;;;10.93;2.20;;;20.10;99.90;;;;;;5047153;28;20761;-76
2022/07/26 00:09:47;;;;;;;7.13;2.20;;;20.00;99.90;;;;;;5053930;28;20485;-75
2022/07/26 00:12:14;;;;;;;6.00;2.23;;;19.90;99.90;;;;;;5040235;28;20492;-75
2022/07/26 00:14:41;;;;;;;8.30;2.60;;;19.90;99.90;;;;;;5047915;28;20569;-75
2022/07/26 00:17:10;;;;;;;5.97;2.50;;;19.80;99.90;;;;;;5039258;28;20447;-76
2022/07/26 00:19:37;;;;;;;11.27;2.80;;;19.70;99.90;;;;;;5041710;28;20808;-76
2022/07/26 00:24:48;;;;;;;6.60;2.43;;;19.70;99.90;;;;;;5047654;28;20445;-76
2022/07/26 00:27:15;;;;;;;5.63;2.63;;;19.70;99.90;;;;;;5047220;28;20439;-74
2022/07/26 00:29:42;;;;;;;3.93;1.70;;;19.70;99.90;;;;;;5049176;28;20477;-75
2022/07/26 00:32:11;;;;;;;5.83;1.87;;;19.60;99.90;;;;;;5041013;28;20458;-74
2022/07/26 00:34:37;;;;;;;8.83;3.50;;;19.50;99.90;;;;;;5042463;28;20470;-76
2022/07/26 00:37:04;;;;;;;5.23;2.60;;;19.50;99.90;;;;;;5045130;28;20486;-75
2022/07/26 00:39:31;;;;;;;4.63;2.80;;;19.50;99.90;;;;;;5046853;28;20438;-76
2022/07/26 00:41:58;;;;;;;18.37;4.17;;;19.50;99.90;;;;;;5046554;28;20489;-75
2022/07/26 00:44:35;;;;;;;11.57;2.93;;;19.50;99.90;;;;;;5050149;28;20552;-76
2022/07/26 00:47:02;;;;;;;8.70;3.03;;;19.40;99.90;;;;;;5027028;28;20489;-77
2022/07/26 00:49:31;;;;;;;4.83;2.70;;;19.40;99.90;;;;;;5054846;28;20543;-77
2022/07/26 00:51:58;;;;;;;7.47;2.73;;;19.40;99.90;;;;;;5063520;28;20442;-76
2022/07/26 00:54:46;;;;;;;7.83;2.97;;;19.30;99.90;;;;;;5055806;28;20823;-75
2022/07/26 00:57:14;;;;;;;8.47;2.60;;;19.30;99.90;;;;;;5052314;28;20867;-77
2022/07/26 00:59:42;;;;;;;6.17;3.37;;;19.30;99.90;;;;;;5042277;28;20486;-75
2022/07/26 01:02:10;;;;;;;6.90;3.00;;;19.30;99.90;;;;;;5046459;28;20457;-75
2022/07/26 01:04:38;;;;;;;14.73;3.27;;;19.40;99.90;;;;;;5044812;28;20533;-76
2022/07/26 01:07:06;;;;;;;11.07;2.40;;;19.50;99.90;;;;;;5048292;28;20479;-77
2022/07/26 01:09:33;;;;;;;7.30;2.63;;;19.50;99.90;;;;;;5048183;28;20521;-75
2022/07/26 01:12:01;;;;;;;12.40;3.70;;;19.50;99.90;;;;;;5040439;28;20468;-76
2022/07/26 01:14:27;;;;;;;11.50;3.13;;;19.60;99.90;;;;;;5036651;28;20524;-75
2022/07/26 01:16:55;;;;;;;9.03;3.30;;;19.60;99.90;;;;;;5041837;28;20446;-75
2022/07/26 01:19:22;;;;;;;11.40;5.77;;;19.60;99.90;;;;;;5047634;28;20435;-76
2022/07/26 01:21:51;;;;;;;7.23;3.20;;;19.60;99.90;;;;;;5050987;28;20442;-75
2022/07/26 01:24:18;;;;;;;10.23;3.20;;;19.60;99.90;;;;;;5049339;28;20470;-75
2022/07/26 01:26:45;;;;;;;10.93;4.17;;;19.60;99.90;;;;;;5045220;28;20468;-76
2022/07/26 01:29:12;;;;;;;8.60;5.20;;;19.60;99.90;;;;;;5043547;28;20914;-76
2022/07/26 01:31:40;;;;;;;6.50;2.57;;;19.50;99.90;;;;;;5049912;28;20542;-76
2022/07/26 01:34:07;;;;;;;9.90;2.90;;;19.40;99.90;;;;;;5047131;28;21030;-76
2022/07/26 01:36:36;;;;;;;8.40;2.57;;;19.40;99.90;;;;;;5041783;28;20488;-76
2022/07/26 01:39:04;;;;;;;14.00;3.53;;;19.30;99.90;;;;;;5052486;28;20442;-77
2022/07/26 01:41:32;;;;;;;8.30;3.97;;;19.30;99.90;;;;;;5049078;28;20451;-75
2022/07/26 01:43:59;;;;;;;8.70;2.90;;;19.30;99.90;;;;;;5052036;28;20517;-76
2022/07/26 01:46:26;;;;;;;11.07;3.77;;;19.20;99.90;;;;;;5049551;28;20501;-75
2022/07/26 01:48:53;;;;;;;14.70;3.97;;;19.20;99.90;;;;;;5047106;28;20446;-76
2022/07/26 01:51:20;;;;;;;14.90;3.93;;;19.10;99.90;;;;;;5046571;28;20712;-75
2022/07/26 01:53:47;;;;;;;8.40;4.30;;;19.10;99.90;;;;;;5049391;28;20485;-76
2022/07/26 01:56:15;;;;;;;7.50;3.53;;;19.10;99.90;;;;;;5032811;28;20556;-76
2022/07/26 01:58:42;;;;;;;8.23;3.20;;;19.00;99.90;;;;;;5046951;28;20512;-76
2022/07/26 02:01:09;;;;;;;13.47;4.20;;;19.00;99.90;;;;;;5047575;28;20457;-75
2022/07/26 02:03:36;;;;;;;12.17;3.37;;;19.00;99.90;;;;;;5050695;28;20472;-74
2022/07/26 02:06:05;;;;;;;11.17;4.00;;;19.00;99.90;;;;;;5077142;23;20486;-82
2022/07/26 02:08:32;;;;;;;11.03;3.60;;;19.00;99.90;;;;;;5071773;28;20472;-78
2022/07/26 02:11:02;;;;;;;18.33;4.00;;;19.00;99.90;;;;;;5071324;28;20486;-78
2022/07/26 02:13:33;;;;;;;16.63;3.63;;;19.00;99.90;;;;;;5075814;28;20449;-84
2022/07/26 02:16:00;;;;;;;9.23;3.07;;;19.00;99.90;;;;;;5082000;28;20474;-80
2022/07/26 02:18:29;;;;;;;10.93;4.20;;;19.00;99.90;;;;;;5096340;28;20449;-79
2022/07/26 02:20:56;;;;;;;14.90;4.10;;;19.00;99.90;;;;;;5092785;28;20430;-79
2022/07/26 02:23:24;;;;;;;8.03;3.17;;;19.00;99.90;;;;;;5098219;28;20434;-79
2022/07/26 02:25:51;;;;;;;11.03;3.63;;;19.00;99.90;;;;;;5099459;28;20533;-78
2022/07/26 02:28:19;;;;;;;14.90;4.20;;;19.00;99.90;;;;;;5099780;28;20479;-79
2022/07/26 02:30:47;;;;;;;11.13;5.10;;;19.10;99.90;;;;;;5095746;28;20508;-80
2022/07/26 02:33:15;;;;;;;12.53;3.90;;;19.00;99.90;;;;;;5090823;28;20938;-82
2022/07/26 02:35:44;;;;;;;13.30;3.53;;;19.00;99.90;;;;;;5089677;28;20469;-81
2022/07/26 02:38:13;;;;;;;8.73;3.70;;;19.00;99.90;;;;;;5088888;28;20437;-80
2022/07/26 02:40:41;;;;;;;15.60;3.77;;;19.00;99.90;;;;;;5089895;28;20500;-82
2022/07/26 02:43:10;;;;;;;11.60;3.60;;;18.70;99.90;;;;;;5105401;28;20512;-81
2022/07/26 02:45:37;;;;;;;15.67;4.50;;;18.90;99.90;;;;;;5098050;28;20465;-79
2022/07/26 02:48:05;;;;;;;9.30;3.97;;;18.80;99.90;;;;;;5094891;28;20468;-81
2022/07/26 02:50:32;;;;;;;7.90;3.67;;;18.80;99.90;;;;;;5094893;28;20484;-80
2022/07/26 02:52:59;;;;;;;16.63;3.87;;;18.80;99.90;;;;;;5097249;28;20453;-81
2022/07/26 02:55:27;;;;;;;9.50;3.30;;;18.80;99.90;;;;;;5095585;28;20666;-80
2022/07/26 02:57:54;;;;;;;9.00;3.50;;;18.80;99.90;;;;;;5095201;28;20449;-79
2022/07/26 03:00:23;;;;;;;6.17;3.57;;;18.70;99.90;;;;;;5097491;28;20445;-79
2022/07/26 03:02:51;;;;;;;17.30;4.33;;;18.80;99.90;;;;;;5095171;28;20516;-80
2022/07/26 03:05:19;;;;;;;17.47;4.83;;;18.80;99.90;;;;;;5095199;28;20479;-80
2022/07/26 03:07:47;;;;;;;11.43;3.53;;;18.70;99.90;;;;;;5094219;28;20532;-83
2022/07/26 03:10:14;;;;;;;18.30;6.20;;;18.70;99.90;;;;;;5104984;28;20502;-81
2022/07/26 03:12:42;;;;;;;8.90;3.50;;;18.70;99.90;;;;;;5087234;28;20457;-79
2022/07/26 03:15:12;;;;;;;11.37;4.40;;;18.80;99.90;;;;;;5090222;28;20462;-79
2022/07/26 03:17:39;;;;;;;9.93;3.67;;;18.80;99.90;;;;;;5089044;28;20457;-82
2022/07/26 03:20:07;;;;;;;10.80;4.37;;;18.80;99.90;;;;;;5093999;28;20456;-81
2022/07/26 03:22:35;;;;;;;11.90;3.23;;;18.80;99.90;;;;;;5083189;28;20545;-81
2022/07/26 03:25:02;;;;;;;8.27;3.30;;;18.80;99.90;;;;;;5094148;28;20509;-81
2022/07/26 03:27:29;;;;;;;14.30;4.77;;;18.80;99.90;;;;;;5095149;28;20442;-81
2022/07/26 03:29:57;;;;;;;8.23;4.30;;;18.80;99.90;;;;;;5093592;28;20492;-79
2022/07/26 03:32:24;;;;;;;16.00;4.00;;;18.70;99.90;;;;;;5087623;28;20969;-81
2022/07/26 03:34:51;;;;;;;9.53;3.53;;;18.70;99.90;;;;;;5087423;28;20453;-80
2022/07/26 03:37:18;;;;;;;13.27;4.43;;;18.70;99.90;;;;;;5090802;28;20438;-80
2022/07/26 03:39:46;;;;;;;12.13;5.80;;;18.60;99.90;;;;;;5093355;28;20464;-80
2022/07/26 03:42:13;;;;;;;14.47;4.00;;;18.60;99.90;;;;;;5086885;28;20452;-81
2022/07/26 03:44:40;;;;;;;13.93;3.90;;;18.60;99.90;;;;;;5090537;28;20496;-84
2022/07/26 03:47:07;;;;;;;15.60;3.30;;;18.50;99.90;;;;;;5088454;28;20663;-81
2022/07/26 03:49:34;;;;;;;13.70;3.97;;;18.50;99.90;;;;;;5088513;28;20469;-84
2022/07/26 03:52:01;;;;;;;10.43;4.37;;;18.60;99.90;;;;;;5083277;28;20479;-82
2022/07/26 03:54:28;;;;;;;11.70;4.47;;;18.60;99.90;;;;;;5088517;28;20461;-83
2022/07/26 03:56:55;;;;;;;11.90;4.10;;;18.60;99.90;;;;;;5084405;28;20517;-83
2022/07/26 03:59:24;;;;;;;17.40;5.83;;;18.60;99.90;;;;;;5089941;28;20468;-83
2022/07/26 04:01:51;;;;;;;11.97;3.70;;;18.60;99.90;;;;;;5088443;28;20954;-84
2022/07/26 04:04:19;;;;;;;14.27;4.33;;;18.60;99.90;;;;;;5089160;28;20540;-83
2022/07/26 04:06:46;;;;;;;17.10;3.37;;;18.60;99.90;;;;;;5088648;28;20519;-82
2022/07/26 04:09:14;;;;;;;12.90;4.17;;;18.60;99.90;;;;;;5086003;28;20453;-83
2022/07/26 04:11:41;;;;;;;7.60;3.30;;;18.70;99.90;;;;;;5086824;28;20565;-83
2022/07/26 04:14:10;;;;;;;14.67;4.20;;;18.70;99.90;;;;;;5080994;28;20537;-83
2022/07/26 04:16:37;;;;;;;9.33;3.83;;;18.80;99.90;;;;;;5085091;28;20919;-83
2022/07/26 04:19:04;;;;;;;19.57;5.20;;;18.80;99.90;;;;;;5088381;28;20445;-83
2022/07/26 04:21:30;;;;;;;12.00;3.20;;;18.90;99.90;;;;;;5083272;28;20449;-80
2022/07/26 04:23:57;;;;;;;8.43;3.50;;;19.00;99.90;;;;;;5087282;28;20434;-80
2022/07/26 04:26:24;;;;;;;6.33;3.17;;;18.90;99.90;;;;;;5076722;28;20514;-82
2022/07/26 04:28:51;;;;;;;11.87;4.30;;;19.00;99.90;;;;;;5084740;28;20512;-81
2022/07/26 04:31:19;;;;;;;16.10;4.13;;;19.00;99.90;;;;;;5078154;28;20530;-83
2022/07/26 04:33:46;;;;;;;17.67;4.30;;;19.00;99.90;;;;;;5079352;28;20444;-82
2022/07/26 04:36:13;;;;;;;16.40;3.93;;;19.00;99.90;;;;;;5084134;28;20554;-81
2022/07/26 04:38:40;;;;;;;15.30;4.37;;;19.10;99.90;;;;;;5084744;28;20525;-84
2022/07/26 04:41:07;;;;;;;19.67;4.17;;;19.10;99.90;;;;;;5088045;28;20441;-80
2022/07/26 04:43:34;;;;;;;14.13;4.40;;;19.20;99.90;;;;;;5080792;28;20437;-79
2022/07/26 04:46:01;;;;;;;11.73;3.10;;;19.30;99.90;;;;;;5088636;28;20449;-79
2022/07/26 04:48:29;;;;;;;10.60;3.60;;;19.70;99.90;;;;;;5089130;28;20421;-78
2022/07/26 04:50:56;;;;;;;13.00;4.10;;;20.30;99.90;;;;;;5097759;28;20545;-80
2022/07/26 04:53:23;;;;;;;12.17;5.10;;;20.40;99.90;;;;;;5091568;28;20437;-82
2022/07/26 04:55:50;;;;;;;7.57;3.23;;;20.40;99.90;;;;;;5084532;28;20499;-80
2022/07/26 04:58:17;;;;;;;9.80;4.83;;;20.60;99.90;;;;;;5081222;28;20984;-83
2022/07/26 05:00:44;;;;;;;11.80;3.73;;;20.70;99.90;;;;;;5072505;28;20529;-81
2022/07/26 05:03:10;;;;;;;7.87;4.10;;;20.90;99.90;;;;;;5083704;28;20435;-81
2022/07/26 05:05:39;;;;;;;13.67;3.80;;;21.20;99.90;;;;;;5083170;28;20461;-83
2022/07/26 05:08:05;;;;;;;11.73;4.10;;;21.10;99.90;;;;;;5083456;28;20463;-84
2022/07/26 05:10:35;;;;;;;13.37;5.13;;;21.10;99.90;;;;;;5079843;28;20564;-81
2022/07/26 05:13:02;;;;;;;8.57;4.70;;;21.10;99.90;;;;;;5081849;28;20429;-81
2022/07/26 05:15:30;;;;;;;11.27;4.23;;;20.90;99.90;;;;;;5083736;28;20479;-81
2022/07/26 05:18:01;;;;;;;9.90;3.57;;;20.70;99.90;;;;;;5089000;28;20446;-84
2022/07/26 05:20:28;;;;;;;6.93;3.47;;;20.40;99.90;;;;;;5083722;28;20458;-80
2022/07/26 05:22:57;;;;;;;11.50;4.40;;;20.40;99.90;;;;;;5082393;28;20931;-83
2022/07/26 05:25:24;;;;;;;10.47;4.60;;;20.20;99.90;;;;;;5084151;28;20510;-83
2022/07/26 05:27:50;;;;;;;13.60;5.13;;;20.40;99.90;;;;;;5082654;28;20534;-83
2022/07/26 05:30:17;;;;;;;8.83;4.60;;;20.30;99.90;;;;;;5084308;28;20541;-81
2022/07/26 05:32:44;;;;;;;13.10;5.70;;;20.30;99.90;;;;;;5081925;28;21029;-83
2022/07/26 05:35:11;;;;;;;7.20;4.90;;;20.20;99.90;;;;;;5084266;28;20467;-80
2022/07/26 05:37:38;;;;;;;10.60;5.23;;;20.10;99.90;;;;;;5082048;28;20525;-82
2022/07/26 05:40:09;;;;;;;14.30;6.03;;;19.90;99.90;;;;;;5081753;28;20510;-82
2022/07/26 05:42:35;;;;;;;12.33;4.97;;;19.70;99.90;;;;;;5075900;28;20437;-82
2022/07/26 05:45:02;;;;;;;12.97;7.17;;;19.70;99.90;;;;;;5080716;28;20598;-84
2022/07/26 05:47:29;;;;;;;13.50;5.07;;;19.50;99.90;;;;;;5085801;28;21010;-82
2022/07/26 05:49:56;;;;;;;17.07;5.60;;;19.50;99.90;;;;;;5086808;28;20952;-83
2022/07/26 05:52:24;;;;;;;12.27;5.87;;;19.40;99.90;;;;;;5088141;28;20548;-83
2022/07/26 05:54:51;;;;;;;8.80;5.27;;;19.30;99.90;;;;;;5086908;28;20461;-83
2022/07/26 05:57:19;;;;;;;8.53;4.73;;;19.20;99.90;;;;;;5087144;28;20547;-84
2022/07/26 05:59:46;;;;;;;11.27;5.63;;;19.20;99.90;;;;;;5087012;28;20544;-83
2022/07/26 06:02:13;;;;;;;6.40;5.00;;;19.10;99.90;;;;;;5092647;28;20461;-80
2022/07/26 06:04:39;;;;;;;13.83;5.37;;;19.20;99.90;;;;;;5094691;28;20537;-83
2022/07/26 06:07:06;;;;;;;5.53;4.50;;;19.10;99.90;;;;;;5087391;28;20550;-83
2022/07/26 06:09:33;;;;;;;10.27;5.50;;;19.10;99.90;;;;;;5090302;28;20438;-80
2022/07/26 06:12:00;;;;;;;7.50;5.67;;;19.10;99.90;;;;;;5099139;28;20519;-79
2022/07/26 06:14:28;;;;;;;9.03;6.10;;;18.90;99.90;;;;;;5100225;28;20484;-78
2022/07/26 06:16:55;;;;;;;7.27;4.10;;;19.10;99.90;;;;;;5100337;28;20445;-77
2022/07/26 06:19:22;;;;;;;5.50;2.90;;;19.10;99.90;;;;;;5099411;28;20432;-78
2022/07/26 06:21:49;;;;;;;6.97;2.87;;;19.10;99.90;;;;;;5099744;28;20431;-80
2022/07/26 06:24:16;;;;;;;5.37;2.77;;;19.00;99.90;;;;;;5096746;28;20486;-79
2022/07/26 06:26:43;;;;;;;9.70;2.80;;;19.10;99.90;;;;;;5100160;28;20425;-78
2022/07/26 06:29:10;;;;;;;5.40;2.40;;;19.20;99.90;;;;;;5100306;28;20452;-79
2022/07/26 06:31:38;;;;;;;6.07;2.47;;;19.10;99.90;;;;;;5096598;28;20472;-78
2022/07/26 06:34:05;;;;;;;6.77;2.73;;;19.30;99.90;;;;;;5099851;28;20457;-78
2022/07/26 06:36:32;;;;;;;8.97;3.33;;;19.50;99.90;;;;;;5096415;28;20461;-78
2022/07/26 06:38:58;;;;;;;3.83;2.70;;;19.80;99.90;;;;;;5086111;28;20458;-77
2022/07/26 06:41:25;;;;;;;9.50;3.03;;;20.10;99.90;;;;;;5093422;28;20470;-81
2022/07/26 06:43:52;;;;;;;6.73;2.50;;;20.20;99.90;;;;;;5090867;28;20454;-81
2022/07/26 06:46:19;;;;;;;13.03;3.20;;;20.20;99.90;;;;;;5087750;28;20452;-81
2022/07/26 06:48:48;;;;;;;4.90;2.20;;;20.10;99.90;;;;;;5080797;28;20561;-83
2022/07/26 06:51:15;;;;;;;7.23;2.73;;;20.10;99.90;;;;;;5087397;28;20484;-82
2022/07/26 06:53:42;;;;;;;5.10;2.23;;;20.00;99.90;;;;;;5084391;28;20481;-79
2022/07/26 06:56:09;;;;;;;7.53;2.50;;;19.90;99.90;;;;;;5083224;28;20500;-82
2022/07/26 06:58:36;;;;;;;4.10;1.73;;;19.70;99.90;;;;;;5077578;28;20481;-84
2022/07/26 07:01:02;;;;;;;4.87;1.40;;;19.50;99.90;;;;;;5075191;28;20482;-81
2022/07/26 07:03:29;;;;;;;5.50;1.97;;;19.30;99.90;;;;;;5083724;28;20473;-80
2022/07/26 07:05:57;;;;;;;1.77;1.33;;;19.20;99.90;;;;;;5089137;28;20552;-81
2022/07/26 07:08:24;;;;;;;2.90;1.17;;;19.30;99.90;;;;;;5096415;28;20451;-82
2022/07/26 07:10:51;;;;;;;3.83;1.63;;;19.20;99.90;;;;;;5095209;28;20441;-80
2022/07/26 07:13:18;;;;;;;4.17;2.23;;;19.20;99.90;;;;;;5082057;28;20481;-81
2022/07/26 07:15:46;;;;;;;3.23;1.07;;;19.40;99.90;;;;;;5092778;28;20457;-81
2022/07/26 07:18:13;;;;;;;6.90;1.20;;;19.40;99.90;;;;;;5088114;28;20469;-77
2022/07/26 07:20:40;;;;;;;4.17;1.43;;;19.60;99.90;;;;;;5085844;28;20439;-78
2022/07/26 07:23:08;;;;;;;3.90;1.17;;;19.80;99.90;;;;;;5087987;28;20457;-79
2022/07/26 07:25:35;;;;;;;3.73;1.13;;;20.10;99.90;;;;;;5095011;28;20508;-78
2022/07/26 07:28:02;;;;;;;5.50;1.40;;;20.50;99.90;;;;;;5089105;28;20514;-81
2022/07/26 07:30:29;;;;;;;2.97;1.30;;;20.70;99.90;;;;;;5088537;28;20511;-82
2022/07/26 07:32:56;;;;;;;4.17;1.60;;;20.70;99.90;;;;;;5082996;28;20577;-80
2022/07/26 07:35:23;;;;;;;3.83;1.53;;;20.80;99.90;;;;;;5088479;28;20494;-81
2022/07/26 07:37:49;;;;;;;2.97;1.30;;;20.80;99.90;;;;;;5085523;28;20446;-82
2022/07/26 07:40:18;;;;;;;5.03;1.10;;;20.80;99.90;;;;;;5088116;28;20541;-83
2022/07/26 07:42:45;;;;;;;3.27;1.33;;;20.90;99.90;;;;;;5073628;28;20477;-82
2022/07/26 07:45:11;;;;;;;5.80;1.53;;;20.80;99.90;;;;;;5081414;28;20509;-82
2022/07/26 07:47:38;;;;;;;2.80;1.20;;;20.50;99.90;;;;;;5088162;28;20533;-81
2022/07/26 07:50:07;;;;;;;3.53;1.30;;;20.10;99.90;;;;;;5085802;28;20455;-83
2022/07/26 07:52:33;;;;;;;4.13;1.50;;;19.60;99.90;;;;;;5086763;28;20497;-82
2022/07/26 07:55:00;;;;;;;5.47;1.63;;;19.40;99.90;;;;;;5086776;28;20477;-80
2022/07/26 07:57:28;;;;;;;3.33;1.67;;;19.40;99.90;;;;;;5088438;28;20506;-80
2022/07/26 07:59:55;;;;;;;4.87;1.10;;;19.70;99.90;;;;;;5086052;28;20550;-79
2022/07/26 08:02:22;;;;;;;3.13;1.87;;;19.90;99.90;;;;;;5084745;28;20444;-82
2022/07/26 08:04:49;;;;;;;5.50;1.53;;;20.10;99.90;;;;;;5086348;28;20555;-82
2022/07/26 08:07:16;;;;;;;1.97;1.00;;;20.30;99.90;;;;;;5085584;28;20546;-81
2022/07/26 08:09:43;;;;;;;4.13;1.30;;;20.50;99.90;;;;;;5086204;28;20818;-81
2022/07/26 08:12:10;;;;;;;6.80;1.80;;;20.50;99.90;;;;;;5084821;28;20584;-83
2022/07/26 08:14:38;;;;;;;9.17;2.10;;;20.50;99.90;;;;;;5071492;28;20476;-80
2022/07/26 08:17:05;;;;;;;2.80;1.20;;;20.60;99.90;;;;;;5084192;28;20895;-83
2022/07/26 08:19:32;;;;;;;3.43;1.40;;;20.80;99.90;;;;;;5085526;28;20524;-83
2022/07/26 08:21:59;;;;;;;4.80;1.00;;;21.50;99.90;;;;;;5088403;28;20481;-83
2022/07/26 08:24:25;;;;;;;4.83;1.10;;;22.40;99.90;;;;;;5084921;28;20520;-83
2022/07/26 08:26:53;;;;;;;5.33;1.90;;;23.50;99.90;;;;;;5087274;28;20528;-82
2022/07/26 08:29:20;;;;;;;8.03;1.73;;;24.20;99.90;;;;;;5080614;28;20429;-81
2022/07/26 08:31:49;;;;;;;4.27;1.30;;;24.40;99.90;;;;;;5091624;28;20488;-81
2022/07/26 08:34:17;;;;;;;5.30;1.10;;;24.50;99.90;;;;;;5089772;28;20457;-81
2022/07/26 08:36:44;;;;;;;4.70;1.10;;;25.00;99.90;;;;;;5093107;28;20451;-80
2022/07/26 08:39:11;;;;;;;4.77;1.20;;;25.30;99.10;;;;;;5096693;28;20507;-79
2022/07/26 08:41:40;;;;;;;3.83;1.10;;;25.30;98.90;;;;;;5091838;28;20521;-81
2022/07/26 08:44:11;;;;;;;4.03;1.10;;;25.50;97.50;;;;;;5089115;28;20472;-79
2022/07/26 08:46:39;;;;;;;3.27;1.10;;;25.20;98.30;;;;;;5090815;28;20455;-82
2022/07/26 08:49:09;;;;;;;4.03;1.33;;;25.40;99.10;;;;;;5096213;28;20460;-79
2022/07/26 08:51:39;;;;;;;4.20;1.80;;;25.80;97.50;;;;;;5097488;28;20464;-78
2022/07/26 08:54:06;;;;;;;5.40;1.57;;;25.50;97.30;;;;;;5091361;28;20488;-80
2022/07/26 08:56:34;;;;;;;7.10;1.40;;;24.90;98.70;;;;;;5096754;28;20439;-78
2022/07/26 08:59:04;;;;;;;4.23;1.43;;;24.50;99.00;;;;;;5092946;28;20497;-80
2022/07/26 09:01:31;;;;;;;4.17;1.20;;;23.90;99.60;;;;;;5094528;28;20508;-81
2022/07/26 09:04:19;;;;;;;2.33;0.93;;;22.80;99.90;;;;;;5084812;28;20744;-83
2022/07/26 09:06:58;;;;;;;12.00;2.00;;;21.80;99.90;;;;;;5077599;28;20472;-83
2022/07/26 09:09:26;;;;;;;8.33;1.17;;;21.20;99.90;;;;;;5076535;28;20435;-82
2022/07/26 09:11:54;;;;;;;3.70;1.10;;;21.00;99.90;;;;;;5084382;28;20567;-82
2022/07/26 09:14:22;;;;;;;5.33;1.47;;;20.90;99.90;;;;;;5090642;28;20469;-80
2022/07/26 09:16:58;;;;;;;2.70;1.10;;;21.40;99.90;;;;;;5090092;28;20455;-82
2022/07/26 09:19:27;;;;;;;8.57;1.20;;;22.30;99.90;;;;;;5086243;28;20445;-83
2022/07/26 09:21:56;;;;;;;6.10;1.40;;;23.40;99.90;;;;;;5085880;28;20453;-83
2022/07/26 09:24:34;;;;;;;5.80;1.40;;;24.10;99.90;;;;;;5089355;28;20465;-82
2022/07/26 09:27:03;;;;;;;4.50;1.70;;;24.90;97.10;;;;;;5086165;28;20437;-83
2022/07/26 09:29:31;;;;;;;7.97;1.53;;;25.00;96.60;;;;;;5089656;28;20543;-82
2022/07/26 09:32:12;;;;;;;5.33;1.40;;;25.20;95.40;;;;;;5089660;28;20569;-81
2022/07/26 09:34:40;;;;;;;5.40;1.73;;;25.30;94.50;;;;;;5085831;28;20588;-83
2022/07/26 09:37:08;;;;;;;6.70;1.87;;;25.20;93.80;;;;;;5074974;28;20523;-81
2022/07/26 09:39:54;;;;;;;2.23;1.10;;;25.00;93.60;;;;;;5088376;28;20610;-84
2022/07/26 09:42:22;;;;;;;4.77;1.40;;;25.20;93.80;;;;;;5083037;28;20434;-84
2022/07/26 09:44:49;;;;;;;3.70;1.80;;;25.20;93.80;;;;;;5088537;28;20534;-85
2022/07/26 09:47:16;;;;;;;7.20;1.57;;;25.30;94.20;;;;;;5081297;28;20517;-83
2022/07/26 09:49:45;;;;;;;2.80;1.40;;;25.30;94.20;;;;;;5087043;28;20445;-82
2022/07/26 09:52:16;;;;;;;3.20;1.50;;;25.00;93.90;;;;;;5084351;28;20504;-81
2022/07/26 09:54:45;;;;;;;4.10;2.00;;;24.50;93.40;;;;;;5080450;28;20469;-82
2022/07/26 09:57:15;;;;;;;4.13;0.80;;;23.80;93.90;;;;;;5079803;28;20481;-82
2022/07/26 09:59:42;;;;;;;7.50;1.30;;;23.50;93.90;;;;;;5086717;28;20445;-79
2022/07/26 10:02:11;;;;;;;3.83;1.43;;;23.10;95.70;;;;;;5078250;28;21005;-83
2022/07/26 10:04:38;;;;;;;5.23;0.97;;;22.60;96.00;;;;;;5078737;28;20493;-81
2022/07/26 10:07:07;;;;;;;7.70;1.00;;;22.30;98.00;;;;;;5085470;28;21018;-83
2022/07/26 10:09:39;;;;;;;3.43;1.10;;;22.20;97.90;;;;;;5087476;28;20449;-83
2022/07/26 10:12:08;;;;;;;5.77;1.90;;;22.30;98.70;;;;;;5079232;28;20516;-80
2022/07/26 10:14:40;;;;;;;4.87;1.37;;;22.60;97.80;;;;;;5084946;28;20525;-82
2022/07/26 10:17:46;;;;;;;3.40;1.20;;;22.90;97.60;;;;;;5086472;28;20461;-82
2022/07/26 10:20:42;;;;;;;5.40;1.20;;;23.00;96.20;;;;;;5085669;28;20453;-80
2022/07/26 10:26:41;;;;;;;9.73;1.10;;;22.80;96.10;;;;;;5087444;28;20443;-83
2022/07/26 10:29:28;;;;;;;3.73;1.20;;;23.20;95.10;;;;;;5090138;28;20473;-82
2022/07/26 10:32:20;;;;;;;5.37;1.73;;;23.60;94.70;;;;;;5085717;28;21016;-80
2022/07/26 10:34:47;;;;;;;2.90;1.00;;;23.90;93.60;;;;;;5066986;28;20476;-82
2022/07/26 10:37:29;;;;;;;5.20;1.23;;;23.90;93.50;;;;;;5087862;28;20484;-83
2022/07/26 10:40:16;;;;;;;6.53;1.77;;;24.00;93.40;;;;;;5088747;28;20453;-82
2022/07/26 10:42:45;;;;;;;5.40;1.50;;;23.80;93.10;;;;;;5082590;28;20445;-82
2022/07/26 10:45:22;;;;;;;6.07;1.27;;;23.80;93.50;;;;;;5088425;28;20496;-83
2022/07/26 10:48:15;;;;;;;5.17;1.17;;;23.70;93.50;;;;;;5088399;28;20449;-81
2022/07/26 10:50:44;;;;;;;6.10;1.70;;;23.40;92.60;;;;;;5081410;28;20461;-82
2022/07/26 10:53:18;;;;;;;4.80;1.90;;;23.10;92.80;;;;;;5089784;28;20548;-82
2022/07/26 10:55:47;;;;;;;4.57;1.30;;;23.20;93.30;;;;;;5088667;28;20488;-81
2022/07/26 10:58:15;;;;;;;3.53;0.90;;;23.20;92.70;;;;;;5090120;28;20904;-81
2022/07/26 11:00:55;;;;;;;6.60;2.20;;;23.30;93.20;;;;;;5087121;28;20512;-82
2022/07/26 11:03:22;;;;;;;2.33;1.07;;;23.40;92.80;;;;;;5088870;28;20468;-81
2022/07/26 11:05:50;;;;;;;4.27;1.40;;;23.20;92.40;;;;;;5084872;28;20473;-83
2022/07/26 11:08:17;;;;;;;2.40;1.00;;;23.20;92.20;;;;;;5085367;28;20456;-81
2022/07/26 11:10:46;;;;;;;2.90;1.00;;;23.10;92.20;;;;;;5076747;28;20477;-81
2022/07/26 11:13:17;;;;;;;10.40;1.93;;;23.00;91.60;;;;;;5078645;28;21076;-84
2022/07/26 11:15:46;;;;;;;2.13;1.53;;;23.00;91.70;;;;;;5085841;28;20525;-83
2022/07/26 11:18:18;;;;;;;2.20;1.20;;;23.10;91.80;;;;;;5087402;28;20545;-81
2022/07/26 11:20:48;;;;;;;4.07;1.07;;;23.50;91.10;;;;;;5084374;28;20473;-83
2022/07/26 11:23:26;;;;;;;6.00;1.50;;;23.50;89.50;;;;;;5087645;28;20548;-82
2022/07/26 11:26:12;;;;;;;2.90;1.23;;;23.30;90.50;;;;;;5083907;28;20516;-83
2022/07/26 11:28:56;;;;;;;3.53;1.00;;;23.70;90.20;;;;;;5085291;28;20508;-84
2022/07/26 11:31:27;;;;;;;10.10;1.30;;;24.00;89.60;;;;;;5076112;28;20445;-83
2022/07/26 11:33:55;;;;;;;6.87;1.33;;;24.10;89.10;;;;;;5084886;28;20539;-83
2022/07/26 11:36:39;;;;;;;4.27;1.40;;;23.90;90.10;;;;;;5085246;28;20519;-82
2022/07/26 11:39:08;;;;;;;5.43;1.63;;;23.80;89.70;;;;;;5080549;28;20476;-81
2022/07/26 11:41:36;;;;;;;5.80;1.40;;;23.50;90.00;;;;;;5085978;28;20430;-81
2022/07/26 11:44:05;;;;;;;5.20;1.87;;;23.20;90.50;;;;;;5085921;28;21869;-82
2022/07/26 11:46:35;;;;;;;6.90;1.70;;;22.90;91.10;;;;;;5084148;28;20461;-83
2022/07/26 11:49:04;;;;;;;8.20;1.93;;;22.80;91.30;;;;;;5087535;28;20508;-83
2022/07/26 11:51:33;;;;;;;4.17;1.40;;;22.90;91.40;;;;;;5081196;28;20505;-84
2022/07/26 11:54:03;;;;;;;3.37;1.50;;;23.00;90.90;;;;;;5085162;28;20488;-82
2022/07/26 11:56:31;;;;;;;3.47;1.50;;;22.90;90.50;;;;;;5090600;28;20443;-79
2022/07/26 11:58:58;;;;;;;6.37;2.40;;;23.20;91.00;;;;;;5086241;28;20449;-80
2022/07/26 12:01:27;;;;;;;9.40;2.07;;;23.30;90.60;;;;;;5093017;28;20512;-82
2022/07/26 12:03:55;;;;;;;8.40;2.10;;;23.10;91.20;;;;;;5093192;28;20467;-79
2022/07/26 12:06:25;;;;;;;9.67;2.90;;;22.70;91.50;;;;;;5090642;28;20458;-79
2022/07/26 12:08:54;;;;;;;10.83;2.83;;;22.50;92.00;;;;;;5091437;28;20430;-80
2022/07/26 12:11:22;;;;;;;8.70;2.43;;;22.40;92.40;;;;;;5089913;28;20543;-82
2022/07/26 12:13:58;;;;;;;9.33;2.30;;;22.30;92.20;;;;;;5086835;28;20504;-80
2022/07/26 12:16:42;;;;;;;12.13;2.77;;;22.30;92.50;;;;;;5087231;28;20512;-82
2022/07/26 12:19:22;;;;;;;5.23;2.80;;;22.20;92.70;;;;;;5089243;28;20451;-82
2022/07/26 12:21:50;;;;;;;11.67;2.73;;;22.30;92.80;;;;;;5082060;28;20497;-83
2022/07/26 12:24:43;;;;;;;8.63;2.70;;;22.10;92.60;;;;;;5089151;28;20483;-83
2022/07/26 12:27:12;;;;;;;14.30;2.10;;;21.70;93.00;;;;;;5093241;28;20571;-79
2022/07/26 12:29:40;;;;;;;12.80;3.17;;;21.60;92.80;;;;;;5094161;28;20436;-80
2022/07/26 12:32:11;;;;;;;6.10;2.43;;;21.50;93.00;;;;;;5093486;28;20451;-81
2022/07/26 12:34:40;;;;;;;11.57;2.07;;;21.40;93.10;;;;;;5074745;28;20489;-80
2022/07/26 12:37:15;;;;;;;3.93;2.23;;;21.40;93.10;;;;;;5084034;28;20463;-81
2022/07/26 12:39:58;;;;;;;11.93;2.37;;;21.50;93.10;;;;;;5083075;28;20496;-82
2022/07/26 12:42:27;;;;;;;10.83;1.90;;;21.60;93.20;;;;;;5086531;28;20447;-82
2022/07/26 12:44:54;;;;;;;7.87;4.90;;;21.60;93.20;;;;;;5082994;28;20566;-82
2022/07/26 12:47:22;;;;;;;10.67;3.17;;;21.50;93.50;;;;;;5083312;28;20541;-83
2022/07/26 12:49:49;;;;;;;8.00;2.63;;;21.60;93.50;;;;;;5082342;28;20510;-81
2022/07/26 12:52:21;;;;;;;9.13;2.40;;;21.70;93.20;;;;;;5085333;28;20476;-81
2022/07/26 12:54:50;;;;;;;8.03;2.80;;;21.80;92.90;;;;;;5083553;28;20531;-81
2022/07/26 12:57:18;;;;;;;12.17;3.00;;;22.10;92.40;;;;;;5086511;28;20448;-83